Time;durP1;ratioP1;P1;durP2;ratioP2;P2;SDS_P1;SDS_P2;PMS_P1;PMS_P2;Temp;Humidity;BMP_temperature;BMP_pressure;BME280_temperature;BME280_humidity;BME280_pressure;Samples;Min_cycle;Max_cycle;Signal;HPM_P1;HPM_P2
2023/04/14 00:00:48;;;;;;;10.93;4.90;;;;;;;12.14;62.73;94261.53;5002458;28;20246;-74
2023/04/14 00:03:16;;;;;;;14.70;5.50;;;;;;;12.10;62.49;94262.22;4981094;28;20917;-74
2023/04/14 00:05:41;;;;;;;13.43;5.00;;;;;;;12.16;61.97;94259.47;5006258;28;20237;-74
2023/04/14 00:08:07;;;;;;;9.50;5.00;;;;;;;12.05;62.72;94249.78;5011204;28;20230;-74
2023/04/14 00:10:32;;;;;;;10.63;5.47;;;;;;;11.79;65.38;94258.03;5023074;28;20280;-73
2023/04/14 00:12:59;;;;;;;10.40;5.30;;;;;;;11.96;64.97;94263.44;4993774;28;20322;-74
2023/04/14 00:15:24;;;;;;;11.30;5.30;;;;;;;12.02;63.90;94246.78;4994883;28;20227;-74
2023/04/14 00:17:50;;;;;;;12.67;5.43;;;;;;;12.13;62.95;94254.69;4996619;28;20288;-75
2023/04/14 00:20:15;;;;;;;13.03;5.63;;;;;;;12.18;62.56;94240.09;4986436;28;20222;-74
2023/04/14 00:22:41;;;;;;;13.03;5.67;;;;;;;11.85;63.45;94241.38;4997265;28;20238;-74
2023/04/14 00:25:06;;;;;;;10.50;5.00;;;;;;;12.09;63.18;94240.41;4994992;28;20233;-74
2023/04/14 00:27:32;;;;;;;12.90;5.20;;;;;;;12.21;63.38;94240.44;4995832;28;20241;-74
2023/04/14 00:29:57;;;;;;;11.53;4.90;;;;;;;12.29;63.13;94239.31;5015721;28;20732;-74
2023/04/14 00:32:23;;;;;;;10.70;4.97;;;;;;;12.37;61.97;94236.38;4999226;28;20620;-74
2023/04/14 00:34:48;;;;;;;10.97;5.00;;;;;;;12.36;61.96;94242.63;4983098;28;20639;-74
2023/04/14 00:37:14;;;;;;;9.27;5.27;;;;;;;12.34;61.66;94239.44;4997354;28;20786;-74
2023/04/14 00:39:39;;;;;;;11.10;5.20;;;;;;;12.44;61.30;94237.06;5012781;28;20620;-74
2023/04/14 00:42:05;;;;;;;12.43;4.87;;;;;;;12.49;62.11;94243.19;4998782;28;20257;-74
2023/04/14 00:44:31;;;;;;;10.20;4.63;;;;;;;12.44;61.63;94232.59;4997124;28;20242;-73
2023/04/14 00:46:56;;;;;;;12.40;5.10;;;;;;;12.45;62.03;94236.00;4985491;28;20227;-73
2023/04/14 00:49:22;;;;;;;13.43;5.20;;;;;;;12.23;62.99;94233.13;4983646;28;20324;-72
2023/04/14 00:51:48;;;;;;;11.50;5.00;;;;;;;12.28;63.26;94230.63;5011158;28;20280;-72
2023/04/14 00:54:18;;;;;;;10.63;4.93;;;;;;;12.04;62.18;94218.50;5015723;28;20237;-73
2023/04/14 00:56:48;;;;;;;10.13;4.80;;;;;;;12.15;63.12;94223.00;5023801;28;20258;-74
2023/04/14 00:59:14;;;;;;;9.90;5.07;;;;;;;12.26;63.10;94226.66;5033592;28;20248;-72
2023/04/14 01:01:40;;;;;;;11.03;4.70;;;;;;;12.27;63.01;94220.38;5012993;28;20676;-73
2023/04/14 01:04:05;;;;;;;8.33;4.23;;;;;;;12.29;63.12;94213.88;5030783;28;20796;-73
2023/04/14 01:06:31;;;;;;;8.07;4.30;;;;;;;12.24;62.36;94218.19;5001830;28;20748;-73
2023/04/14 01:08:57;;;;;;;8.87;4.77;;;;;;;12.27;62.58;94229.06;5013338;28;20317;-72
2023/04/14 01:11:47;;;;;;;9.00;4.50;;;;;;;12.21;62.72;94214.22;5005739;28;20230;-73
2023/04/14 01:14:41;;;;;;;12.73;4.57;;;;;;;12.18;61.96;94225.16;5011440;28;20313;-73
2023/04/14 01:17:33;;;;;;;7.53;4.30;;;;;;;12.25;61.89;94215.38;5012313;28;20711;-73
2023/04/14 01:20:15;;;;;;;10.17;4.63;;;;;;;12.11;64.57;94229.69;5009798;28;20234;-73
2023/04/14 01:22:48;;;;;;;9.93;4.37;;;;;;;12.29;62.83;94231.44;5006733;28;20238;-73
2023/04/14 01:25:28;;;;;;;13.43;4.37;;;;;;;12.29;63.79;94221.75;4998319;28;20241;-73
2023/04/14 01:27:54;;;;;;;9.23;4.50;;;;;;;12.22;64.31;94222.88;5009566;28;20243;-73
2023/04/14 01:30:45;;;;;;;8.73;4.30;;;;;;;12.05;65.26;94215.69;5009649;28;20241;-73
2023/04/14 01:33:13;;;;;;;9.03;4.43;;;;;;;12.02;65.43;94210.88;5012609;28;20265;-72
2023/04/14 01:35:42;;;;;;;7.63;4.03;;;;;;;12.10;64.36;94213.19;4988221;28;20244;-73
2023/04/14 01:38:09;;;;;;;7.73;4.67;;;;;;;12.06;64.67;94206.78;4994631;28;20319;-72
2023/04/14 01:40:36;;;;;;;8.93;4.40;;;;;;;12.11;63.97;94212.13;4998861;28;20236;-73
2023/04/14 01:43:04;;;;;;;10.53;4.37;;;;;;;11.97;65.35;94204.69;4994814;28;20234;-73
2023/04/14 01:45:37;;;;;;;7.93;4.33;;;;;;;11.91;65.35;94206.41;4986316;28;20238;-74
2023/04/14 01:48:02;;;;;;;8.23;4.30;;;;;;;11.82;65.48;94214.84;4987091;28;20242;-73
2023/04/14 01:50:28;;;;;;;7.93;4.23;;;;;;;11.92;66.72;94209.81;5003408;28;20219;-74
2023/04/14 01:52:53;;;;;;;7.13;4.20;;;;;;;11.91;66.63;94219.53;4982030;28;20233;-73
2023/04/14 01:55:19;;;;;;;9.07;4.30;;;;;;;12.13;64.02;94215.34;4994807;28;20743;-73
2023/04/14 01:57:45;;;;;;;8.20;4.43;;;;;;;12.22;63.77;94210.56;5004223;28;20238;-73
2023/04/14 02:00:11;;;;;;;11.53;4.50;;;;;;;12.15;64.57;94204.63;5021021;28;20236;-73
2023/04/14 02:02:38;;;;;;;8.20;4.13;;;;;;;12.14;64.46;94203.03;5023353;28;20316;-73
2023/04/14 02:05:04;;;;;;;10.23;4.80;;;;;;;12.15;64.18;94200.19;5020619;28;20225;-73
2023/04/14 02:07:30;;;;;;;7.27;4.60;;;;;;;12.11;65.09;94214.75;5026181;28;20238;-73
2023/04/14 02:09:55;;;;;;;8.97;4.43;;;;;;;12.16;64.67;94217.50;5033673;28;20237;-74
2023/04/14 02:12:21;;;;;;;8.30;4.53;;;;;;;12.10;64.99;94217.63;5015241;28;20324;-73
2023/04/14 02:14:46;;;;;;;13.63;4.60;;;;;;;12.13;65.95;94225.06;5017885;28;20237;-73
2023/04/14 02:17:12;;;;;;;10.53;4.57;;;;;;;12.09;65.62;94223.88;5004641;28;20242;-73
2023/04/14 02:19:37;;;;;;;9.93;4.50;;;;;;;12.12;65.47;94216.38;4997979;28;20235;-73
2023/04/14 02:22:03;;;;;;;9.53;4.53;;;;;;;12.06;65.19;94213.88;5009507;28;20233;-73
2023/04/14 02:24:29;;;;;;;9.43;4.50;;;;;;;11.92;64.63;94222.94;5012129;28;20252;-73
2023/04/14 02:27:02;;;;;;;9.17;4.43;;;;;;;11.91;66.80;94216.09;5010646;28;20252;-73
2023/04/14 02:29:27;;;;;;;8.83;4.20;;;;;;;11.85;64.99;94220.41;5021713;28;20260;-73
2023/04/14 02:31:59;;;;;;;8.13;4.27;;;;;;;11.84;66.31;94218.81;5009380;28;20226;-74
2023/04/14 02:34:29;;;;;;;8.20;4.40;;;;;;;11.90;66.77;94215.28;5018377;28;20245;-73
2023/04/14 02:36:56;;;;;;;7.87;4.30;;;;;;;11.95;65.58;94206.75;5024328;28;20328;-74
2023/04/14 02:39:31;;;;;;;7.87;4.10;;;;;;;11.93;66.39;94208.81;5021114;28;20283;-72
2023/04/14 02:42:01;;;;;;;12.87;4.60;;;;;;;11.93;64.69;94217.47;5020417;28;20652;-73
2023/04/14 02:44:28;;;;;;;7.10;4.20;;;;;;;12.04;64.90;94216.69;5017834;28;20226;-73
2023/04/14 02:47:08;;;;;;;15.07;5.10;;;;;;;12.05;64.07;94214.88;5033221;28;20238;-73
2023/04/14 02:49:35;;;;;;;10.23;4.87;;;;;;;11.98;65.33;94219.41;5004114;28;20291;-73
2023/04/14 02:52:05;;;;;;;14.27;4.77;;;;;;;11.97;66.20;94223.84;5022035;28;20340;-73
2023/04/14 02:54:34;;;;;;;10.63;5.17;;;;;;;11.91;65.58;94206.41;5016919;28;20245;-72
2023/04/14 02:57:01;;;;;;;10.53;4.73;;;;;;;11.86;65.75;94190.56;5001964;28;20229;-72
2023/04/14 02:59:26;;;;;;;9.30;4.60;;;;;;;11.97;66.13;94202.88;5004651;28;20333;-73
2023/04/14 03:01:52;;;;;;;9.50;4.60;;;;;;;12.01;66.56;94200.63;5005245;28;20617;-72
2023/04/14 03:04:17;;;;;;;9.90;4.47;;;;;;;11.74;66.29;94194.97;5015799;28;20411;-72
2023/04/14 03:06:43;;;;;;;9.20;4.57;;;;;;;11.78;66.95;94203.97;5003794;28;20241;-72
2023/04/14 03:09:08;;;;;;;10.77;4.77;;;;;;;11.74;67.39;94191.53;5032916;28;20237;-72
2023/04/14 03:11:34;;;;;;;10.17;4.57;;;;;;;11.42;69.01;94170.78;5009354;28;20257;-73
2023/04/14 03:13:59;;;;;;;9.90;4.37;;;;;;;11.55;69.09;94193.41;5020940;28;20230;-72
2023/04/14 03:16:25;;;;;;;8.87;4.33;;;;;;;11.50;67.97;94165.25;5019844;28;20222;-73
2023/04/14 03:18:50;;;;;;;7.23;4.23;;;;;;;11.67;68.42;94191.63;5017116;28;20233;-74
2023/04/14 03:21:17;;;;;;;8.83;4.50;;;;;;;11.64;67.85;94175.53;5024247;28;20601;-74
2023/04/14 03:23:44;;;;;;;8.23;4.10;;;;;;;11.76;67.61;94195.53;5014411;28;20229;-73
2023/04/14 03:26:10;;;;;;;10.93;4.23;;;;;;;11.77;66.86;94186.66;5014047;28;20307;-74
2023/04/14 03:28:36;;;;;;;8.30;4.40;;;;;;;11.80;67.11;94199.31;5050099;28;20234;-74
2023/04/14 03:31:03;;;;;;;10.80;4.40;;;;;;;11.67;67.73;94196.84;5000886;28;20226;-73
2023/04/14 03:33:28;;;;;;;9.83;4.43;;;;;;;11.78;66.92;94180.38;5018818;28;20245;-73
2023/04/14 03:35:55;;;;;;;7.83;4.40;;;;;;;11.42;69.95;94164.75;5019531;28;20652;-74
2023/04/14 03:38:22;;;;;;;8.87;4.20;;;;;;;11.37;70.51;94157.56;5016978;28;20931;-74
2023/04/14 03:40:48;;;;;;;9.73;4.40;;;;;;;11.44;69.75;94154.84;5033904;28;20237;-73
2023/04/14 03:43:18;;;;;;;5.93;4.17;;;;;;;11.36;69.70;94157.78;5033094;28;20695;-73
2023/04/14 03:45:46;;;;;;;10.73;4.53;;;;;;;11.36;69.63;94149.94;5005297;28;20233;-74
2023/04/14 03:48:12;;;;;;;8.23;4.23;;;;;;;11.36;69.08;94126.34;5032869;28;20249;-73
2023/04/14 03:50:40;;;;;;;8.23;4.67;;;;;;;11.30;69.18;94117.56;5008739;28;20490;-73
2023/04/14 03:53:07;;;;;;;8.07;4.80;;;;;;;11.50;69.47;94120.72;5012461;28;20229;-73
2023/04/14 03:55:33;;;;;;;9.10;4.17;;;;;;;11.61;69.76;94128.81;5015534;28;20246;-74
2023/04/14 03:57:58;;;;;;;9.83;4.70;;;;;;;11.75;68.37;94128.41;5018055;28;20237;-73
2023/04/14 04:00:25;;;;;;;9.67;4.67;;;;;;;11.81;67.37;94117.03;5006317;28;20300;-74
2023/04/14 04:02:50;;;;;;;9.77;4.50;;;;;;;11.88;67.62;94122.97;5012668;28;20711;-74
2023/04/14 04:05:16;;;;;;;10.30;4.80;;;;;;;11.77;67.83;94123.75;5007404;28;20229;-74
2023/04/14 04:07:44;;;;;;;11.43;4.70;;;;;;;11.69;68.14;94133.75;5019903;28;20237;-74
2023/04/14 04:10:11;;;;;;;9.73;4.83;;;;;;;11.81;68.04;94138.00;5018814;28;20351;-74
2023/04/14 04:12:37;;;;;;;9.90;4.67;;;;;;;11.80;68.07;94125.09;5002821;28;20294;-73
2023/04/14 04:15:02;;;;;;;11.13;4.97;;;;;;;11.79;67.22;94126.94;5009046;28;20307;-74
2023/04/14 04:17:28;;;;;;;9.23;5.03;;;;;;;11.76;67.96;94132.63;5038726;28;20809;-73
2023/04/14 04:19:54;;;;;;;8.57;4.80;;;;;;;11.61;69.14;94120.97;5000382;28;20230;-74
2023/04/14 04:22:19;;;;;;;7.90;4.57;;;;;;;11.52;69.08;94120.47;5017558;28;20313;-74
2023/04/14 04:24:46;;;;;;;9.50;4.70;;;;;;;11.39;69.76;94128.53;5011826;28;20591;-74
2023/04/14 04:27:11;;;;;;;9.37;4.90;;;;;;;11.48;69.85;94119.34;5008424;28;20338;-74
2023/04/14 04:29:37;;;;;;;11.40;4.97;;;;;;;11.64;68.55;94129.16;5021390;28;20724;-74
2023/04/14 04:32:04;;;;;;;10.10;4.87;;;;;;;11.80;68.51;94139.00;4999874;28;20217;-74
2023/04/14 04:34:31;;;;;;;15.10;5.50;;;;;;;11.78;66.80;94135.81;5022712;28;20230;-75
2023/04/14 04:36:58;;;;;;;10.87;5.20;;;;;;;11.79;67.28;94141.88;5014685;28;20233;-74
2023/04/14 04:39:24;;;;;;;12.67;5.77;;;;;;;11.76;67.97;94143.13;5018466;28;20757;-74
2023/04/14 04:41:50;;;;;;;10.67;5.50;;;;;;;11.87;67.68;94147.56;5003795;28;20241;-75
2023/04/14 04:44:16;;;;;;;13.43;5.30;;;;;;;11.76;67.83;94153.59;5029435;28;20719;-75
2023/04/14 04:46:41;;;;;;;11.10;5.67;;;;;;;11.92;68.96;94173.91;5007289;28;20241;-75
2023/04/14 04:49:07;;;;;;;11.80;5.97;;;;;;;11.92;69.14;94173.09;5031936;28;20647;-75
2023/04/14 04:51:32;;;;;;;16.17;5.77;;;;;;;12.01;68.59;94179.66;5006040;28;20234;-75
2023/04/14 04:53:58;;;;;;;13.27;5.90;;;;;;;12.06;68.28;94169.28;4995704;28;20234;-75
2023/04/14 04:56:23;;;;;;;15.47;6.10;;;;;;;12.12;67.26;94161.28;5014054;28;20236;-75
2023/04/14 04:58:49;;;;;;;16.70;6.53;;;;;;;11.88;69.11;94154.41;5030170;28;20241;-75
2023/04/14 05:01:20;;;;;;;14.97;5.53;;;;;;;11.82;69.87;94152.69;5023153;28;20287;-75
2023/04/14 05:03:46;;;;;;;11.93;5.60;;;;;;;11.97;69.46;94155.69;5021505;28;20340;-74
2023/04/14 05:06:12;;;;;;;13.77;6.33;;;;;;;12.09;69.99;94153.06;5020644;28;20313;-75
2023/04/14 05:08:37;;;;;;;12.20;6.10;;;;;;;11.93;69.94;94135.38;5017437;28;20238;-75
2023/04/14 05:11:03;;;;;;;12.93;5.70;;;;;;;11.80;72.77;94130.34;5037908;28;20236;-74
2023/04/14 05:13:29;;;;;;;14.43;6.40;;;;;;;11.73;70.87;94129.66;5015606;28;20623;-74
2023/04/14 05:16:04;;;;;;;15.93;6.20;;;;;;;11.75;70.50;94131.03;5032224;28;20218;-75
2023/04/14 05:18:30;;;;;;;17.43;5.90;;;;;;;12.05;70.01;94131.75;5033924;28;20229;-75
2023/04/14 05:21:01;;;;;;;10.07;5.37;;;;;;;12.33;67.29;94138.13;5018985;28;20233;-75
2023/04/14 05:23:27;;;;;;;10.43;5.33;;;;;;;12.37;66.35;94129.56;5027204;28;20246;-75
2023/04/14 05:25:55;;;;;;;8.37;4.90;;;;;;;12.62;64.29;94129.31;5007451;28;20229;-75
2023/04/14 05:28:21;;;;;;;8.03;4.60;;;;;;;12.71;63.10;94114.78;5016507;28;20230;-75
2023/04/14 05:30:46;;;;;;;8.43;4.33;;;;;;;12.73;62.97;94113.53;5012786;28;20252;-75
2023/04/14 05:33:12;;;;;;;8.97;4.67;;;;;;;12.77;62.12;94108.63;5031138;28;20234;-74
2023/04/14 05:35:37;;;;;;;9.03;4.33;;;;;;;12.85;62.29;94093.28;5021817;28;20303;-75
2023/04/14 05:38:03;;;;;;;9.77;4.43;;;;;;;12.85;62.06;94082.78;5020245;28;20229;-75
2023/04/14 05:40:28;;;;;;;8.47;4.67;;;;;;;12.86;61.15;94091.47;5022737;28;20261;-75
2023/04/14 05:42:54;;;;;;;8.50;4.30;;;;;;;12.90;61.36;94089.19;5006961;28;20290;-75
2023/04/14 05:45:19;;;;;;;10.70;4.83;;;;;;;12.93;61.39;94086.88;5015999;28;20225;-74
2023/04/14 05:47:45;;;;;;;13.23;5.10;;;;;;;13.01;60.60;94070.75;5033536;28;20241;-75
2023/04/14 05:50:11;;;;;;;9.67;4.90;;;;;;;13.01;60.39;94070.75;5014589;28;20238;-74
2023/04/14 05:52:36;;;;;;;9.23;4.80;;;;;;;13.26;59.85;94065.97;5012668;28;20886;-74
2023/04/14 05:55:02;;;;;;;10.43;5.07;;;;;;;13.45;61.46;94072.59;5022390;28;20310;-74
2023/04/14 05:57:27;;;;;;;11.53;5.50;;;;;;;13.60;62.03;94068.63;4998811;28;20234;-74
2023/04/14 05:59:53;;;;;;;14.53;5.00;;;;;;;13.48;61.68;94073.97;5028392;28;20229;-74
2023/04/14 06:02:18;;;;;;;11.13;5.07;;;;;;;13.62;61.15;94074.44;5027891;28;20250;-74
2023/04/14 06:04:44;;;;;;;11.93;5.00;;;;;;;13.68;57.73;94076.13;5011949;28;20332;-74
2023/04/14 06:07:09;;;;;;;9.53;4.80;;;;;;;13.74;58.32;94077.78;5027557;28;20234;-73
2023/04/14 06:09:34;;;;;;;9.43;4.20;;;;;;;13.77;58.22;94074.69;5046274;28;20241;-75
2023/04/14 06:12:00;;;;;;;10.23;4.53;;;;;;;13.60;59.67;94053.66;5021250;28;20292;-74
2023/04/14 06:14:25;;;;;;;7.97;4.20;;;;;;;13.36;58.64;94050.38;5030641;28;20238;-74
2023/04/14 06:16:51;;;;;;;6.77;3.90;;;;;;;13.54;58.28;94056.44;5014182;28;20683;-74
2023/04/14 06:19:17;;;;;;;8.07;3.87;;;;;;;13.65;58.54;94051.13;5031804;28;20230;-74
2023/04/14 06:21:43;;;;;;;9.00;4.17;;;;;;;13.58;58.65;94036.53;5007081;28;20217;-74
2023/04/14 06:24:08;;;;;;;9.43;3.90;;;;;;;13.42;58.85;94035.50;5011947;28;20399;-73
2023/04/14 06:26:34;;;;;;;7.03;3.70;;;;;;;13.50;58.97;94041.16;5008589;28;20891;-74
2023/04/14 06:28:59;;;;;;;8.77;4.73;;;;;;;13.60;59.91;94023.94;5007207;28;20255;-73
2023/04/14 06:31:25;;;;;;;12.90;5.03;;;;;;;13.54;59.93;94020.44;5017049;28;20324;-74
2023/04/14 06:33:51;;;;;;;10.93;4.90;;;;;;;13.65;59.00;94016.13;5028408;28;20233;-75
2023/04/14 06:36:17;;;;;;;10.23;4.60;;;;;;;13.77;60.15;93993.97;5020310;28;20229;-74
2023/04/14 06:38:43;;;;;;;7.17;4.60;;;;;;;13.68;59.27;93984.09;5032433;28;20256;-73
2023/04/14 06:41:08;;;;;;;7.40;4.27;;;;;;;13.76;59.93;93978.41;5010940;28;20615;-74
2023/04/14 06:43:34;;;;;;;11.17;4.07;;;;;;;13.96;59.28;93987.41;5020837;28;20238;-73
2023/04/14 06:46:00;;;;;;;11.80;4.50;;;;;;;14.05;59.30;93995.66;5023705;28;20225;-74
2023/04/14 06:48:26;;;;;;;12.10;4.40;;;;;;;14.07;59.36;93988.31;5019808;28;20229;-74
2023/04/14 06:50:55;;;;;;;9.17;4.30;;;;;;;14.06;60.01;93973.59;5015739;28;20316;-74
2023/04/14 06:53:21;;;;;;;8.53;3.80;;;;;;;14.09;59.92;93975.72;5002262;28;20236;-74
2023/04/14 06:55:49;;;;;;;9.03;4.10;;;;;;;14.15;58.33;93961.59;5030576;28;20320;-73
2023/04/14 06:58:14;;;;;;;10.67;3.90;;;;;;;14.08;58.61;93951.25;5034965;28;20225;-74
2023/04/14 07:00:40;;;;;;;11.83;4.00;;;;;;;14.28;58.55;93931.47;5032266;28;20233;-75
2023/04/14 07:03:05;;;;;;;11.00;4.33;;;;;;;14.26;57.56;93936.19;5011617;28;20237;-74
2023/04/14 07:05:52;;;;;;;8.83;4.07;;;;;;;14.73;57.10;93940.69;5025168;28;20295;-75
2023/04/14 07:08:18;;;;;;;6.83;3.70;;;;;;;14.54;55.74;93942.06;5011568;28;20233;-74
2023/04/14 07:10:44;;;;;;;7.80;3.60;;;;;;;15.11;55.42;93952.09;5034626;28;20222;-74
2023/04/14 07:13:09;;;;;;;6.90;3.60;;;;;;;15.53;53.85;93926.59;5012521;28;20232;-74
2023/04/14 07:15:35;;;;;;;9.10;3.63;;;;;;;15.81;53.45;93905.13;5022177;28;20225;-74
2023/04/14 07:18:00;;;;;;;14.20;3.60;;;;;;;16.25;51.95;93945.19;5031465;28;20317;-74
2023/04/14 07:20:27;;;;;;;8.00;3.60;;;;;;;16.52;50.83;93950.34;5030123;28;20237;-74
2023/04/14 07:22:52;;;;;;;10.67;4.17;;;;;;;16.58;49.71;93949.31;4995952;28;20832;-75
2023/04/14 07:25:18;;;;;;;9.37;3.60;;;;;;;16.47;50.00;93908.03;5018158;28;20214;-74
2023/04/14 07:27:43;;;;;;;9.47;3.60;;;;;;;16.91;50.04;93932.22;5021462;28;20290;-75
2023/04/14 07:30:09;;;;;;;9.13;3.40;;;;;;;17.10;48.76;93920.09;5015068;28;20677;-74
2023/04/14 07:32:35;;;;;;;8.07;3.27;;;;;;;16.88;48.16;93930.91;5017738;28;20260;-74
2023/04/14 07:35:00;;;;;;;13.83;3.80;;;;;;;17.20;47.73;93928.00;5019223;28;20241;-74
2023/04/14 07:37:26;;;;;;;7.13;3.27;;;;;;;17.19;47.53;93919.28;5016099;28;20244;-75
2023/04/14 07:39:51;;;;;;;7.90;3.70;;;;;;;17.39;47.01;93924.56;5023970;28;20229;-75
2023/04/14 07:42:17;;;;;;;9.53;3.47;;;;;;;17.42;46.96;93918.75;5031613;28;20341;-74
2023/04/14 07:44:42;;;;;;;8.93;3.30;;;;;;;17.12;47.48;93910.03;5008784;28;20229;-74
2023/04/14 07:47:08;;;;;;;11.13;3.30;;;;;;;17.26;47.20;93911.88;5031767;28;20226;-74
2023/04/14 07:49:34;;;;;;;6.17;3.10;;;;;;;17.43;46.50;93901.81;5035302;28;20245;-73
2023/04/14 07:52:00;;;;;;;10.33;3.33;;;;;;;17.47;46.51;93902.06;5016913;28;20233;-73
2023/04/14 07:54:25;;;;;;;10.67;3.30;;;;;;;17.94;46.45;93915.78;5014211;28;20226;-73
2023/04/14 07:56:51;;;;;;;11.20;3.60;;;;;;;18.34;44.64;93909.53;5002956;28;20280;-73
2023/04/14 07:59:16;;;;;;;8.67;3.47;;;;;;;18.15;44.44;93921.78;5028175;28;20230;-73
2023/04/14 08:01:42;;;;;;;14.47;3.33;;;;;;;17.88;44.25;93902.81;5017308;28;20237;-74
2023/04/14 08:04:07;;;;;;;7.50;3.43;;;;;;;18.27;44.75;93922.28;5018761;28;20240;-74
2023/04/14 08:06:33;;;;;;;10.20;3.10;;;;;;;18.13;44.00;93919.41;5033182;28;20233;-74
2023/04/14 08:08:58;;;;;;;6.27;3.30;;;;;;;18.58;43.72;93915.03;5004423;28;20230;-74
2023/04/14 08:11:24;;;;;;;9.10;3.70;;;;;;;18.44;43.92;93900.75;5033854;28;20667;-74
2023/04/14 08:13:51;;;;;;;11.33;3.70;;;;;;;18.79;43.56;93914.63;5028779;28;20234;-75
2023/04/14 08:16:17;;;;;;;13.80;3.60;;;;;;;19.16;43.47;93905.34;5007621;28;20305;-73
2023/04/14 08:18:43;;;;;;;11.17;3.33;;;;;;;19.11;42.43;93908.03;5031254;28;20234;-74
2023/04/14 08:21:09;;;;;;;14.13;3.50;;;;;;;18.19;43.08;93906.97;5018684;28;20232;-74
2023/04/14 08:23:34;;;;;;;9.10;3.27;;;;;;;18.71;42.69;93915.22;5013473;28;20328;-73
2023/04/14 08:26:00;;;;;;;16.07;3.40;;;;;;;18.67;42.65;93900.94;5010611;28;20299;-74
2023/04/14 08:28:27;;;;;;;9.17;3.43;;;;;;;18.83;42.03;93905.06;5005902;28;21120;-74
2023/04/14 08:30:52;;;;;;;10.90;3.40;;;;;;;19.41;42.04;93910.50;5013084;28;20223;-75
2023/04/14 08:33:18;;;;;;;10.47;3.17;;;;;;;19.48;42.28;93925.06;5007601;28;20253;-74
2023/04/14 08:35:44;;;;;;;11.97;3.40;;;;;;;19.54;40.94;93917.81;5000585;28;20269;-74
2023/04/14 08:38:09;;;;;;;6.73;3.20;;;;;;;19.86;42.13;93918.06;5007790;28;20233;-74
2023/04/14 08:40:39;;;;;;;13.93;3.50;;;;;;;19.77;41.08;93919.75;5016939;28;20328;-73
2023/04/14 08:43:05;;;;;;;9.83;3.00;;;;;;;19.71;41.02;93920.84;5018377;28;20236;-74
2023/04/14 08:45:31;;;;;;;10.73;3.13;;;;;;;20.06;41.64;93917.06;5021125;28;20222;-74
2023/04/14 08:47:58;;;;;;;10.40;3.40;;;;;;;20.39;40.26;93918.03;5016316;28;20241;-74
2023/04/14 08:50:25;;;;;;;10.73;3.13;;;;;;;20.68;39.25;93956.72;5021780;28;20296;-73
2023/04/14 08:52:52;;;;;;;7.43;3.07;;;;;;;20.65;39.88;93948.53;5023046;28;20699;-74
2023/04/14 08:55:18;;;;;;;8.83;3.03;;;;;;;20.82;38.56;93948.84;5016514;28;20225;-74
2023/04/14 08:57:43;;;;;;;9.60;3.60;;;;;;;20.34;38.98;93944.66;5007518;28;20226;-73
2023/04/14 09:00:10;;;;;;;11.77;3.33;;;;;;;20.69;40.68;93933.59;5017630;28;20233;-75
2023/04/14 09:02:38;;;;;;;11.93;3.50;;;;;;;20.92;40.46;93958.56;5015517;28;20241;-75
2023/04/14 09:05:05;;;;;;;10.73;3.40;;;;;;;20.72;39.15;93960.41;5031546;28;20238;-76
2023/04/14 09:07:32;;;;;;;8.80;3.17;;;;;;;20.84;39.50;93970.66;5032135;28;20296;-73
2023/04/14 09:09:57;;;;;;;8.20;3.40;;;;;;;20.59;38.49;93958.44;5002240;28;20798;-72
2023/04/14 09:12:23;;;;;;;10.67;3.80;;;;;;;20.66;39.59;93952.78;5033356;28;20226;-74
2023/04/14 09:14:48;;;;;;;11.80;3.20;;;;;;;21.38;39.87;93959.53;5000101;28;20360;-73
2023/04/14 09:17:14;;;;;;;8.90;3.50;;;;;;;21.52;37.60;93963.03;5001836;28;20241;-75
2023/04/14 09:19:40;;;;;;;23.43;3.50;;;;;;;21.84;33.99;93963.06;5000085;28;20233;-74
2023/04/14 09:22:05;;;;;;;13.93;3.03;;;;;;;22.29;31.15;93950.81;4996727;28;20304;-74
2023/04/14 09:24:33;;;;;;;18.27;3.10;;;;;;;22.19;29.43;93958.22;5019548;28;20233;-74
2023/04/14 09:27:04;;;;;;;24.47;3.20;;;;;;;22.28;29.37;93949.22;5012492;28;20217;-75
2023/04/14 09:29:31;;;;;;;20.57;3.07;;;;;;;22.61;30.20;93947.28;5012362;28;20238;-74
2023/04/14 09:31:56;;;;;;;18.13;3.07;;;;;;;22.58;28.80;93943.31;5006763;28;20229;-74
2023/04/14 09:34:22;;;;;;;33.33;3.47;;;;;;;22.19;29.10;93966.97;5030894;28;20742;-73
2023/04/14 09:37:02;;;;;;;24.53;3.33;;;;;;;22.51;30.05;93948.25;5031566;28;20222;-74
2023/04/14 09:39:28;;;;;;;21.20;3.13;;;;;;;22.47;28.97;93935.81;5001068;28;20389;-74
2023/04/14 09:41:53;;;;;;;22.17;3.30;;;;;;;22.26;28.99;93962.03;5010548;28;21157;-74
2023/04/14 09:44:19;;;;;;;20.60;3.27;;;;;;;22.55;28.79;93962.56;5027476;28;20222;-75
2023/04/14 09:47:05;;;;;;;18.27;3.07;;;;;;;22.80;29.30;93974.63;5014420;28;20266;-74
2023/04/14 09:49:30;;;;;;;19.43;3.20;;;;;;;22.71;28.73;93974.53;5023064;28;20238;-74
2023/04/14 09:52:07;;;;;;;28.15;3.45;;;;;;;22.53;28.26;93987.94;5011346;28;20618;-74
2023/04/14 09:54:40;;;;;;;21.42;3.17;;;;;;;22.83;28.94;93997.28;4995193;28;20331;-74
2023/04/14 09:57:06;;;;;;;19.02;3.22;;;;;;;22.88;29.24;93987.25;5012752;28;20229;-75
2023/04/14 09:59:36;;;;;;;19.95;3.40;;;;;;;22.93;29.52;94008.50;5033610;28;21115;-74
2023/04/14 10:02:08;;;;;;;23.92;3.30;;;;;;;22.96;29.24;94010.59;5003544;28;20233;-73
2023/04/14 10:04:34;;;;;;;20.45;3.20;;;;;;;22.88;29.87;94013.19;5030522;28;20230;-74
2023/04/14 10:06:59;;;;;;;22.42;3.67;;;;;;;23.08;29.62;94034.09;5002612;28;20233;-74
2023/04/14 10:09:26;;;;;;;23.00;3.28;;;;;;;22.98;29.82;94026.31;5029962;28;20309;-74
2023/04/14 10:12:14;;;;;;;20.65;3.38;;;;;;;22.99;29.56;94041.25;5029928;28;20222;-73
2023/04/14 10:14:40;;;;;;;24.23;3.17;;;;;;;22.69;29.99;94050.63;5001054;28;20262;-73
2023/04/14 10:17:08;;;;;;;28.85;3.25;;;;;;;22.48;30.46;94054.72;5029897;28;20267;-74
2023/04/14 10:19:35;;;;;;;19.13;3.17;;;;;;;22.20;30.85;94082.41;5019648;28;20230;-73
2023/04/14 10:22:00;;;;;;;16.52;3.47;;;;;;;22.40;31.01;94087.41;5017698;28;20230;-73
2023/04/14 10:24:26;;;;;;;15.13;3.50;;;;;;;22.48;31.72;94103.53;5016916;28;20308;-74
2023/04/14 10:26:52;;;;;;;23.77;3.30;;;;;;;22.54;31.74;94117.56;5030895;28;20234;-74
2023/04/14 10:29:17;;;;;;;16.15;3.10;;;;;;;22.03;32.10;94133.56;5034719;28;20616;-73
2023/04/14 10:31:48;;;;;;;19.90;3.43;;;;;;;22.05;32.83;94126.88;5013961;28;20743;-73
2023/04/14 10:34:14;;;;;;;22.85;3.50;;;;;;;21.19;34.76;94156.50;5036285;28;20234;-73
2023/04/14 10:36:40;;;;;;;20.95;4.03;;;;;;;20.72;36.14;94169.72;5015043;28;20237;-73
2023/04/14 10:39:06;;;;;;;19.58;3.53;;;;;;;20.44;36.67;94192.59;5001978;28;20232;-74
2023/04/14 10:41:47;;;;;;;17.77;3.37;;;;;;;19.79;39.39;94207.06;5034797;28;20240;-73
2023/04/14 10:44:30;;;;;;;16.73;3.43;;;;;;;19.77;40.00;94225.13;5034912;28;20716;-73
2023/04/14 10:46:56;;;;;;;18.87;3.10;;;;;;;19.08;43.66;94264.06;5022907;28;20766;-75
2023/04/14 10:49:29;;;;;;;17.77;3.13;;;;;;;18.62;46.44;94272.03;5035043;28;20229;-74
2023/04/14 10:51:59;;;;;;;9.87;2.80;;;;;;;18.04;49.72;94298.94;5033605;28;20239;-73
2023/04/14 10:54:25;;;;;;;12.90;3.73;;;;;;;17.71;50.29;94316.03;5022527;28;20225;-73
2023/04/14 10:57:11;;;;;;;5.83;1.80;;;;;;;17.26;50.81;94311.25;5018863;28;20234;-75
2023/04/14 10:59:46;;;;;;;3.97;1.97;;;;;;;17.23;50.69;94321.53;5016302;28;20225;-74
2023/04/14 11:02:41;;;;;;;4.37;1.40;;;;;;;16.64;51.66;94326.91;5016652;28;20232;-74
2023/04/14 11:05:10;;;;;;;4.00;1.10;;;;;;;16.05;51.91;94347.13;5030601;28;20251;-73
2023/04/14 11:07:39;;;;;;;2.70;1.03;;;;;;;15.90;51.53;94356.72;5017459;28;20257;-73
2023/04/14 11:10:16;;;;;;;2.03;0.90;;;;;;;15.65;50.91;94365.13;4999322;28;20230;-74
2023/04/14 11:12:42;;;;;;;2.70;0.90;;;;;;;15.64;50.92;94365.38;5033586;28;20320;-74
2023/04/14 11:15:08;;;;;;;1.10;0.80;;;;;;;15.34;51.87;94370.97;5019637;28;20279;-73
2023/04/14 11:17:37;;;;;;;0.70;0.70;;;;;;;15.35;51.81;94383.13;5010661;28;20233;-73
2023/04/14 11:20:16;;;;;;;1.20;0.90;;;;;;;15.48;51.22;94390.72;5017974;28;20256;-73
2023/04/14 11:22:44;;;;;;;4.23;1.00;;;;;;;15.49;50.99;94387.88;5037964;28;20316;-74
2023/04/14 11:25:13;;;;;;;2.10;0.80;;;;;;;15.58;51.05;94395.34;5017188;28;20718;-73
2023/04/14 11:27:39;;;;;;;1.20;0.97;;;;;;;15.62;50.75;94399.88;5015698;28;20621;-74
2023/04/14 11:30:07;;;;;;;2.13;0.93;;;;;;;15.59;50.54;94405.66;5016628;28;20226;-73